sensor_id;sensor_type;location;lat;lon;timestamp;P1;durP1;ratioP1;P2;durP2;ratioP2
47866;SDS011;33628;50.806;11.586;2023-10-31T00:01:05;7.95;;;4.57;;
47866;SDS011;33628;50.806;11.586;2023-10-31T00:03:32;11.30;;;5.13;;
47866;SDS011;33628;50.806;11.586;2023-10-31T00:05:59;11.73;;;5.45;;
47866;SDS011;33628;50.806;11.586;2023-10-31T00:08:27;7.78;;;4.88;;
47866;SDS011;33628;50.806;11.586;2023-10-31T00:10:53;13.18;;;5.25;;
47866;SDS011;33628;50.806;11.586;2023-10-31T00:13:20;9.18;;;4.88;;
47866;SDS011;33628;50.806;11.586;2023-10-31T00:15:47;12.38;;;4.93;;
47866;SDS011;33628;50.806;11.586;2023-10-31T00:18:15;8.70;;;5.18;;
47866;SDS011;33628;50.806;11.586;2023-10-31T00:20:42;14.80;;;6.05;;
47866;SDS011;33628;50.806;11.586;2023-10-31T00:23:08;15.75;;;7.72;;
47866;SDS011;33628;50.806;11.586;2023-10-31T00:25:35;12.35;;;5.88;;
47866;SDS011;33628;50.806;11.586;2023-10-31T00:28:02;10.25;;;6.40;;
47866;SDS011;33628;50.806;11.586;2023-10-31T00:30:29;13.18;;;6.65;;
47866;SDS011;33628;50.806;11.586;2023-10-31T00:32:56;10.88;;;7.05;;
47866;SDS011;33628;50.806;11.586;2023-10-31T00:35:24;12.95;;;7.45;;
47866;SDS011;33628;50.806;11.586;2023-10-31T00:37:52;10.82;;;5.60;;
47866;SDS011;33628;50.806;11.586;2023-10-31T00:40:20;9.02;;;4.65;;
47866;SDS011;33628;50.806;11.586;2023-10-31T00:42:47;10.43;;;5.68;;
47866;SDS011;33628;50.806;11.586;2023-10-31T00:45:14;9.98;;;5.40;;
47866;SDS011;33628;50.806;11.586;2023-10-31T00:47:41;12.15;;;5.78;;
47866;SDS011;33628;50.806;11.586;2023-10-31T00:50:08;13.70;;;5.88;;
47866;SDS011;33628;50.806;11.586;2023-10-31T00:52:36;7.78;;;5.22;;
47866;SDS011;33628;50.806;11.586;2023-10-31T00:55:04;8.77;;;4.93;;
47866;SDS011;33628;50.806;11.586;2023-10-31T00:57:31;8.98;;;5.03;;
47866;SDS011;33628;50.806;11.586;2023-10-31T00:59:58;9.13;;;4.43;;
47866;SDS011;33628;50.806;11.586;2023-10-31T01:02:27;11.73;;;5.18;;
47866;SDS011;33628;50.806;11.586;2023-10-31T01:04:56;7.57;;;5.18;;
47866;SDS011;33628;50.806;11.586;2023-10-31T01:07:24;7.13;;;5.05;;
47866;SDS011;33628;50.806;11.586;2023-10-31T01:09:53;7.22;;;4.85;;
47866;SDS011;33628;50.806;11.586;2023-10-31T01:12:20;7.20;;;4.43;;
47866;SDS011;33628;50.806;11.586;2023-10-31T01:14:47;7.45;;;4.57;;
47866;SDS011;33628;50.806;11.586;2023-10-31T01:17:14;6.22;;;4.40;;
47866;SDS011;33628;50.806;11.586;2023-10-31T01:19:43;10.60;;;4.78;;
47866;SDS011;33628;50.806;11.586;2023-10-31T01:22:09;11.77;;;5.25;;
47866;SDS011;33628;50.806;11.586;2023-10-31T01:24:37;9.82;;;4.90;;
47866;SDS011;33628;50.806;11.586;2023-10-31T01:27:08;6.68;;;4.22;;
47866;SDS011;33628;50.806;11.586;2023-10-31T01:29:38;8.70;;;4.10;;
47866;SDS011;33628;50.806;11.586;2023-10-31T01:32:07;7.13;;;4.18;;
47866;SDS011;33628;50.806;11.586;2023-10-31T01:34:34;9.00;;;4.00;;
47866;SDS011;33628;50.806;11.586;2023-10-31T01:37:01;4.68;;;3.60;;
47866;SDS011;33628;50.806;11.586;2023-10-31T01:39:27;4.78;;;3.38;;
47866;SDS011;33628;50.806;11.586;2023-10-31T01:41:54;6.65;;;3.75;;
47866;SDS011;33628;50.806;11.586;2023-10-31T01:44:22;5.85;;;3.65;;
47866;SDS011;33628;50.806;11.586;2023-10-31T01:46:48;3.95;;;3.10;;
47866;SDS011;33628;50.806;11.586;2023-10-31T01:49:15;6.70;;;3.47;;
47866;SDS011;33628;50.806;11.586;2023-10-31T01:51:42;6.95;;;3.30;;
47866;SDS011;33628;50.806;11.586;2023-10-31T01:54:10;14.70;;;4.25;;
47866;SDS011;33628;50.806;11.586;2023-10-31T01:56:37;5.63;;;3.70;;
47866;SDS011;33628;50.806;11.586;2023-10-31T01:59:04;6.10;;;3.67;;
47866;SDS011;33628;50.806;11.586;2023-10-31T02:01:33;6.55;;;4.10;;
47866;SDS011;33628;50.806;11.586;2023-10-31T02:04:04;7.10;;;3.58;;
47866;SDS011;33628;50.806;11.586;2023-10-31T02:06:31;10.32;;;4.00;;
47866;SDS011;33628;50.806;11.586;2023-10-31T02:08:57;5.55;;;3.75;;
47866;SDS011;33628;50.806;11.586;2023-10-31T02:11:24;7.88;;;3.80;;
47866;SDS011;33628;50.806;11.586;2023-10-31T02:13:51;8.32;;;4.18;;
47866;SDS011;33628;50.806;11.586;2023-10-31T02:16:17;6.82;;;4.15;;
47866;SDS011;33628;50.806;11.586;2023-10-31T02:18:46;6.40;;;4.10;;
47866;SDS011;33628;50.806;11.586;2023-10-31T02:21:13;7.00;;;3.67;;
47866;SDS011;33628;50.806;11.586;2023-10-31T02:23:41;4.85;;;4.07;;
47866;SDS011;33628;50.806;11.586;2023-10-31T02:26:07;7.45;;;3.25;;
47866;SDS011;33628;50.806;11.586;2023-10-31T02:28:34;5.28;;;3.80;;
47866;SDS011;33628;50.806;11.586;2023-10-31T02:31:01;6.25;;;3.75;;
47866;SDS011;33628;50.806;11.586;2023-10-31T02:33:27;4.50;;;3.38;;
47866;SDS011;33628;50.806;11.586;2023-10-31T02:35:55;5.78;;;3.30;;
47866;SDS011;33628;50.806;11.586;2023-10-31T02:38:22;8.30;;;3.78;;
47866;SDS011;33628;50.806;11.586;2023-10-31T02:40:50;6.68;;;3.67;;
47866;SDS011;33628;50.806;11.586;2023-10-31T02:43:16;8.38;;;3.45;;
47866;SDS011;33628;50.806;11.586;2023-10-31T02:45:43;5.05;;;3.58;;
47866;SDS011;33628;50.806;11.586;2023-10-31T02:48:10;6.10;;;3.75;;
47866;SDS011;33628;50.806;11.586;2023-10-31T02:50:36;6.57;;;3.72;;
47866;SDS011;33628;50.806;11.586;2023-10-31T02:53:03;8.68;;;4.07;;
47866;SDS011;33628;50.806;11.586;2023-10-31T02:55:29;7.00;;;3.60;;
47866;SDS011;33628;50.806;11.586;2023-10-31T02:57:58;5.57;;;3.10;;
47866;SDS011;33628;50.806;11.586;2023-10-31T03:00:26;4.82;;;3.13;;
47866;SDS011;33628;50.806;11.586;2023-10-31T03:02:53;6.75;;;3.13;;
47866;SDS011;33628;50.806;11.586;2023-10-31T03:05:19;6.75;;;2.47;;
47866;SDS011;33628;50.806;11.586;2023-10-31T03:07:46;4.60;;;2.65;;
47866;SDS011;33628;50.806;11.586;2023-10-31T03:10:13;5.13;;;2.40;;
47866;SDS011;33628;50.806;11.586;2023-10-31T03:12:40;3.00;;;2.42;;
47866;SDS011;33628;50.806;11.586;2023-10-31T03:15:09;4.80;;;2.85;;
47866;SDS011;33628;50.806;11.586;2023-10-31T03:17:35;5.22;;;2.40;;
47866;SDS011;33628;50.806;11.586;2023-10-31T03:20:02;4.88;;;2.63;;
47866;SDS011;33628;50.806;11.586;2023-10-31T03:22:29;6.22;;;3.00;;
47866;SDS011;33628;50.806;11.586;2023-10-31T03:24:56;3.33;;;2.30;;
47866;SDS011;33628;50.806;11.586;2023-10-31T03:27:22;6.38;;;1.90;;
47866;SDS011;33628;50.806;11.586;2023-10-31T03:29:49;3.03;;;2.00;;
47866;SDS011;33628;50.806;11.586;2023-10-31T03:32:17;5.72;;;2.33;;
47866;SDS011;33628;50.806;11.586;2023-10-31T03:34:44;4.20;;;2.42;;
47866;SDS011;33628;50.806;11.586;2023-10-31T03:37:10;3.00;;;2.08;;
47866;SDS011;33628;50.806;11.586;2023-10-31T03:39:37;3.30;;;1.77;;
47866;SDS011;33628;50.806;11.586;2023-10-31T03:42:04;4.20;;;1.85;;
47866;SDS011;33628;50.806;11.586;2023-10-31T03:44:31;2.40;;;1.85;;
47866;SDS011;33628;50.806;11.586;2023-10-31T03:46:57;2.63;;;1.85;;
47866;SDS011;33628;50.806;11.586;2023-10-31T03:49:25;3.75;;;2.05;;
47866;SDS011;33628;50.806;11.586;2023-10-31T03:51:52;4.80;;;1.83;;
47866;SDS011;33628;50.806;11.586;2023-10-31T03:54:19;2.92;;;1.67;;
47866;SDS011;33628;50.806;11.586;2023-10-31T03:56:45;6.97;;;1.90;;
47866;SDS011;33628;50.806;11.586;2023-10-31T03:59:12;3.53;;;1.83;;
47866;SDS011;33628;50.806;11.586;2023-10-31T04:01:39;2.42;;;1.63;;
47866;SDS011;33628;50.806;11.586;2023-10-31T04:04:06;3.42;;;1.52;;
47866;SDS011;33628;50.806;11.586;2023-10-31T04:06:34;1.60;;;1.45;;
47866;SDS011;33628;50.806;11.586;2023-10-31T04:09:01;2.30;;;1.58;;
47866;SDS011;33628;50.806;11.586;2023-10-31T04:11:28;3.83;;;1.40;;
47866;SDS011;33628;50.806;11.586;2023-10-31T04:13:54;2.58;;;1.60;;
47866;SDS011;33628;50.806;11.586;2023-10-31T04:16:21;1.58;;;1.13;;
47866;SDS011;33628;50.806;11.586;2023-10-31T04:18:47;1.63;;;1.15;;
47866;SDS011;33628;50.806;11.586;2023-10-31T04:21:14;1.90;;;1.00;;
47866;SDS011;33628;50.806;11.586;2023-10-31T04:23:42;2.13;;;1.05;;
47866;SDS011;33628;50.806;11.586;2023-10-31T04:26:09;4.47;;;1.13;;
47866;SDS011;33628;50.806;11.586;2023-10-31T04:28:35;5.07;;;1.20;;
47866;SDS011;33628;50.806;11.586;2023-10-31T04:31:02;1.58;;;1.00;;
47866;SDS011;33628;50.806;11.586;2023-10-31T04:33:29;1.92;;;1.00;;
47866;SDS011;33628;50.806;11.586;2023-10-31T04:35:56;1.05;;;0.90;;
47866;SDS011;33628;50.806;11.586;2023-10-31T04:38:22;2.17;;;0.73;;
47866;SDS011;33628;50.806;11.586;2023-10-31T04:40:50;0.85;;;0.80;;
47866;SDS011;33628;50.806;11.586;2023-10-31T04:43:17;1.55;;;0.75;;
47866;SDS011;33628;50.806;11.586;2023-10-31T04:45:44;1.38;;;0.95;;
47866;SDS011;33628;50.806;11.586;2023-10-31T04:48:10;0.73;;;0.63;;
47866;SDS011;33628;50.806;11.586;2023-10-31T04:50:37;4.30;;;2.13;;
47866;SDS011;33628;50.806;11.586;2023-10-31T04:53:04;1.30;;;0.45;;
47866;SDS011;33628;50.806;11.586;2023-10-31T04:55:31;1.38;;;0.40;;
47866;SDS011;33628;50.806;11.586;2023-10-31T04:57:59;0.85;;;0.40;;
47866;SDS011;33628;50.806;11.586;2023-10-31T05:00:26;1.17;;;0.30;;
47866;SDS011;33628;50.806;11.586;2023-10-31T05:02:52;4.50;;;0.40;;
47866;SDS011;33628;50.806;11.586;2023-10-31T05:05:19;0.30;;;0.20;;
47866;SDS011;33628;50.806;11.586;2023-10-31T05:07:46;0.50;;;0.22;;
47866;SDS011;33628;50.806;11.586;2023-10-31T05:10:12;0.22;;;0.17;;
47866;SDS011;33628;50.806;11.586;2023-10-31T05:12:40;0.40;;;0.30;;
47866;SDS011;33628;50.806;11.586;2023-10-31T05:15:09;2.05;;;0.40;;
47866;SDS011;33628;50.806;11.586;2023-10-31T05:17:35;1.13;;;0.25;;
47866;SDS011;33628;50.806;11.586;2023-10-31T05:20:02;0.30;;;0.30;;
47866;SDS011;33628;50.806;11.586;2023-10-31T05:22:29;2.60;;;0.20;;
47866;SDS011;33628;50.806;11.586;2023-10-31T05:24:55;2.55;;;0.30;;
47866;SDS011;33628;50.806;11.586;2023-10-31T05:27:23;0.57;;;0.28;;
47866;SDS011;33628;50.806;11.586;2023-10-31T05:29:49;0.60;;;0.20;;
47866;SDS011;33628;50.806;11.586;2023-10-31T05:32:17;0.68;;;0.20;;
47866;SDS011;33628;50.806;11.586;2023-10-31T05:34:44;1.15;;;0.40;;
47866;SDS011;33628;50.806;11.586;2023-10-31T05:37:11;1.25;;;0.50;;
47866;SDS011;33628;50.806;11.586;2023-10-31T05:39:37;0.35;;;0.30;;
47866;SDS011;33628;50.806;11.586;2023-10-31T05:42:04;0.73;;;0.40;;
47866;SDS011;33628;50.806;11.586;2023-10-31T05:44:31;0.52;;;0.43;;
47866;SDS011;33628;50.806;11.586;2023-10-31T05:46:57;0.52;;;0.30;;
47866;SDS011;33628;50.806;11.586;2023-10-31T05:49:25;0.20;;;0.13;;
47866;SDS011;33628;50.806;11.586;2023-10-31T05:51:52;1.38;;;0.30;;
47866;SDS011;33628;50.806;11.586;2023-10-31T05:54:19;0.60;;;0.30;;
47866;SDS011;33628;50.806;11.586;2023-10-31T05:56:46;0.30;;;0.20;;
47866;SDS011;33628;50.806;11.586;2023-10-31T05:59:12;0.90;;;0.20;;
47866;SDS011;33628;50.806;11.586;2023-10-31T06:01:39;0.28;;;0.10;;
47866;SDS011;33628;50.806;11.586;2023-10-31T06:04:06;2.80;;;1.75;;
47866;SDS011;33628;50.806;11.586;2023-10-31T06:06:36;0.80;;;0.30;;
47866;SDS011;33628;50.806;11.586;2023-10-31T06:09:04;2.78;;;0.35;;
47866;SDS011;33628;50.806;11.586;2023-10-31T06:11:31;3.15;;;0.45;;
47866;SDS011;33628;50.806;11.586;2023-10-31T06:16:25;0.50;;;0.20;;
47866;SDS011;33628;50.806;11.586;2023-10-31T06:18:51;0.57;;;0.28;;
47866;SDS011;33628;50.806;11.586;2023-10-31T06:21:18;0.75;;;0.20;;
47866;SDS011;33628;50.806;11.586;2023-10-31T06:23:46;3.70;;;0.22;;
47866;SDS011;33628;50.806;11.586;2023-10-31T06:26:12;0.30;;;0.30;;
47866;SDS011;33628;50.806;11.586;2023-10-31T06:28:39;0.47;;;0.30;;
47866;SDS011;33628;50.806;11.586;2023-10-31T06:31:06;0.57;;;0.20;;
47866;SDS011;33628;50.806;11.586;2023-10-31T06:33:32;0.13;;;0.13;;
47866;SDS011;33628;50.806;11.586;2023-10-31T06:35:59;1.00;;;0.50;;
47866;SDS011;33628;50.806;11.586;2023-10-31T06:38:26;2.45;;;0.47;;
47866;SDS011;33628;50.806;11.586;2023-10-31T06:40:54;2.88;;;1.67;;
47866;SDS011;33628;50.806;11.586;2023-10-31T06:43:22;3.05;;;1.42;;
47866;SDS011;33628;50.806;11.586;2023-10-31T06:45:49;2.47;;;1.27;;
47866;SDS011;33628;50.806;11.586;2023-10-31T06:48:16;1.73;;;1.00;;
47866;SDS011;33628;50.806;11.586;2023-10-31T06:50:44;3.40;;;1.75;;
47866;SDS011;33628;50.806;11.586;2023-10-31T06:53:10;13.73;;;4.18;;
47866;SDS011;33628;50.806;11.586;2023-10-31T06:55:37;3.88;;;1.83;;
47866;SDS011;33628;50.806;11.586;2023-10-31T06:58:05;2.88;;;0.73;;
47866;SDS011;33628;50.806;11.586;2023-10-31T07:00:32;2.63;;;0.57;;
47866;SDS011;33628;50.806;11.586;2023-10-31T07:02:58;1.15;;;0.38;;
47866;SDS011;33628;50.806;11.586;2023-10-31T07:05:32;0.93;;;0.60;;
47866;SDS011;33628;50.806;11.586;2023-10-31T07:07:59;1.70;;;0.70;;
47866;SDS011;33628;50.806;11.586;2023-10-31T07:10:25;1.05;;;0.55;;
47866;SDS011;33628;50.806;11.586;2023-10-31T07:12:52;0.95;;;0.60;;
47866;SDS011;33628;50.806;11.586;2023-10-31T07:15:20;1.38;;;0.40;;
47866;SDS011;33628;50.806;11.586;2023-10-31T07:17:46;1.15;;;0.50;;
47866;SDS011;33628;50.806;11.586;2023-10-31T07:20:13;1.25;;;0.50;;
47866;SDS011;33628;50.806;11.586;2023-10-31T07:22:40;0.82;;;0.50;;
47866;SDS011;33628;50.806;11.586;2023-10-31T07:25:07;1.33;;;0.40;;
47866;SDS011;33628;50.806;11.586;2023-10-31T07:27:34;1.60;;;0.52;;
47866;SDS011;33628;50.806;11.586;2023-10-31T07:30:01;3.55;;;0.40;;
47866;SDS011;33628;50.806;11.586;2023-10-31T07:32:30;1.10;;;0.30;;
47866;SDS011;33628;50.806;11.586;2023-10-31T07:34:56;0.60;;;0.32;;
47866;SDS011;33628;50.806;11.586;2023-10-31T07:37:23;0.95;;;0.32;;
47866;SDS011;33628;50.806;11.586;2023-10-31T07:39:49;0.65;;;0.20;;
47866;SDS011;33628;50.806;11.586;2023-10-31T07:42:19;0.38;;;0.20;;
47866;SDS011;33628;50.806;11.586;2023-10-31T07:44:46;0.40;;;0.22;;
47866;SDS011;33628;50.806;11.586;2023-10-31T07:47:12;0.50;;;0.30;;
47866;SDS011;33628;50.806;11.586;2023-10-31T07:49:40;1.48;;;0.45;;
47866;SDS011;33628;50.806;11.586;2023-10-31T07:52:07;1.35;;;0.35;;
47866;SDS011;33628;50.806;11.586;2023-10-31T07:54:34;1.27;;;0.70;;
47866;SDS011;33628;50.806;11.586;2023-10-31T07:57:00;0.82;;;0.40;;
47866;SDS011;33628;50.806;11.586;2023-10-31T07:59:27;1.10;;;0.30;;
47866;SDS011;33628;50.806;11.586;2023-10-31T08:01:53;0.50;;;0.40;;
47866;SDS011;33628;50.806;11.586;2023-10-31T08:04:20;1.73;;;0.30;;
47866;SDS011;33628;50.806;11.586;2023-10-31T08:06:48;2.20;;;0.30;;
47866;SDS011;33628;50.806;11.586;2023-10-31T08:09:15;1.02;;;0.50;;
47866;SDS011;33628;50.806;11.586;2023-10-31T08:11:42;0.70;;;0.52;;
47866;SDS011;33628;50.806;11.586;2023-10-31T08:14:08;0.80;;;0.45;;
47866;SDS011;33628;50.806;11.586;2023-10-31T08:16:36;1.00;;;0.60;;
47866;SDS011;33628;50.806;11.586;2023-10-31T08:19:02;0.55;;;0.40;;
47866;SDS011;33628;50.806;11.586;2023-10-31T08:21:29;0.60;;;0.25;;
47866;SDS011;33628;50.806;11.586;2023-10-31T08:24:02;0.93;;;0.32;;
47866;SDS011;33628;50.806;11.586;2023-10-31T08:26:29;0.57;;;0.35;;
47866;SDS011;33628;50.806;11.586;2023-10-31T08:28:56;1.85;;;0.30;;
47866;SDS011;33628;50.806;11.586;2023-10-31T08:31:23;1.23;;;0.40;;
47866;SDS011;33628;50.806;11.586;2023-10-31T08:33:50;1.73;;;0.52;;
47866;SDS011;33628;50.806;11.586;2023-10-31T08:36:16;1.92;;;0.63;;
47866;SDS011;33628;50.806;11.586;2023-10-31T08:38:43;5.15;;;1.90;;
47866;SDS011;33628;50.806;11.586;2023-10-31T08:41:11;1.33;;;0.43;;
47866;SDS011;33628;50.806;11.586;2023-10-31T08:43:38;0.40;;;0.30;;
47866;SDS011;33628;50.806;11.586;2023-10-31T08:46:05;0.70;;;0.38;;
47866;SDS011;33628;50.806;11.586;2023-10-31T08:48:32;0.38;;;0.30;;
47866;SDS011;33628;50.806;11.586;2023-10-31T08:50:59;0.85;;;0.57;;
47866;SDS011;33628;50.806;11.586;2023-10-31T08:53:25;1.15;;;0.63;;
47866;SDS011;33628;50.806;11.586;2023-10-31T08:55:53;2.85;;;1.70;;
47866;SDS011;33628;50.806;11.586;2023-10-31T08:58:21;5.78;;;2.55;;
47866;SDS011;33628;50.806;11.586;2023-10-31T09:00:48;3.28;;;1.75;;
47866;SDS011;33628;50.806;11.586;2023-10-31T09:03:15;2.67;;;0.70;;
47866;SDS011;33628;50.806;11.586;2023-10-31T09:05:42;0.20;;;0.20;;
47866;SDS011;33628;50.806;11.586;2023-10-31T09:08:09;0.77;;;0.43;;
47866;SDS011;33628;50.806;11.586;2023-10-31T09:10:36;0.17;;;0.10;;
47866;SDS011;33628;50.806;11.586;2023-10-31T09:13:04;1.73;;;1.10;;
47866;SDS011;33628;50.806;11.586;2023-10-31T09:15:32;1.80;;;0.40;;
47866;SDS011;33628;50.806;11.586;2023-10-31T09:17:59;0.40;;;0.35;;
47866;SDS011;33628;50.806;11.586;2023-10-31T09:20:25;1.13;;;0.30;;
47866;SDS011;33628;50.806;11.586;2023-10-31T09:22:52;2.05;;;0.28;;
47866;SDS011;33628;50.806;11.586;2023-10-31T09:25:18;3.33;;;0.35;;
47866;SDS011;33628;50.806;11.586;2023-10-31T09:27:45;0.80;;;0.47;;
47866;SDS011;33628;50.806;11.586;2023-10-31T09:30:12;1.08;;;0.40;;
47866;SDS011;33628;50.806;11.586;2023-10-31T09:32:40;0.65;;;0.32;;
47866;SDS011;33628;50.806;11.586;2023-10-31T09:35:07;0.90;;;0.40;;
47866;SDS011;33628;50.806;11.586;2023-10-31T09:37:34;1.05;;;0.50;;
47866;SDS011;33628;50.806;11.586;2023-10-31T09:40:01;1.00;;;0.40;;
47866;SDS011;33628;50.806;11.586;2023-10-31T09:42:28;1.08;;;0.50;;
47866;SDS011;33628;50.806;11.586;2023-10-31T09:44:55;1.48;;;0.40;;
47866;SDS011;33628;50.806;11.586;2023-10-31T09:47:21;2.40;;;0.50;;
47866;SDS011;33628;50.806;11.586;2023-10-31T09:49:50;0.75;;;0.30;;
47866;SDS011;33628;50.806;11.586;2023-10-31T09:52:17;1.13;;;0.63;;
47866;SDS011;33628;50.806;11.586;2023-10-31T09:54:46;1.35;;;0.70;;
47866;SDS011;33628;50.806;11.586;2023-10-31T09:57:14;1.15;;;0.50;;
47866;SDS011;33628;50.806;11.586;2023-10-31T09:59:42;0.40;;;0.30;;
47866;SDS011;33628;50.806;11.586;2023-10-31T10:02:09;0.60;;;0.25;;
47866;SDS011;33628;50.806;11.586;2023-10-31T10:04:36;2.17;;;0.80;;
47866;SDS011;33628;50.806;11.586;2023-10-31T10:07:04;0.85;;;0.38;;
47866;SDS011;33628;50.806;11.586;2023-10-31T10:09:31;2.47;;;1.05;;
47866;SDS011;33628;50.806;11.586;2023-10-31T10:11:58;1.25;;;0.52;;
47866;SDS011;33628;50.806;11.586;2023-10-31T10:14:25;0.63;;;0.45;;
47866;SDS011;33628;50.806;11.586;2023-10-31T10:16:57;0.38;;;0.20;;
47866;SDS011;33628;50.806;11.586;2023-10-31T10:19:23;1.70;;;0.73;;
47866;SDS011;33628;50.806;11.586;2023-10-31T10:21:52;0.65;;;0.40;;
47866;SDS011;33628;50.806;11.586;2023-10-31T10:24:21;0.32;;;0.20;;
47866;SDS011;33628;50.806;11.586;2023-10-31T10:26:48;1.27;;;0.73;;
47866;SDS011;33628;50.806;11.586;2023-10-31T10:29:16;3.22;;;0.20;;
47866;SDS011;33628;50.806;11.586;2023-10-31T10:31:43;0.70;;;0.40;;
47866;SDS011;33628;50.806;11.586;2023-10-31T10:34:10;0.40;;;0.30;;
47866;SDS011;33628;50.806;11.586;2023-10-31T10:36:38;1.35;;;0.65;;
47866;SDS011;33628;50.806;11.586;2023-10-31T10:39:05;1.55;;;0.47;;
47866;SDS011;33628;50.806;11.586;2023-10-31T10:41:35;1.17;;;0.50;;
47866;SDS011;33628;50.806;11.586;2023-10-31T10:44:03;0.70;;;0.30;;
47866;SDS011;33628;50.806;11.586;2023-10-31T10:46:31;0.40;;;0.20;;
47866;SDS011;33628;50.806;11.586;2023-10-31T10:48:59;0.50;;;0.28;;
47866;SDS011;33628;50.806;11.586;2023-10-31T10:51:33;1.25;;;0.30;;
47866;SDS011;33628;50.806;11.586;2023-10-31T10:54:08;0.93;;;0.20;;
47866;SDS011;33628;50.806;11.586;2023-10-31T10:56:42;4.10;;;0.47;;
47866;SDS011;33628;50.806;11.586;2023-10-31T10:59:12;0.80;;;0.30;;
47866;SDS011;33628;50.806;11.586;2023-10-31T11:01:41;0.43;;;0.13;;
47866;SDS011;33628;50.806;11.586;2023-10-31T11:04:09;0.75;;;0.20;;
47866;SDS011;33628;50.806;11.586;2023-10-31T11:06:36;0.10;;;0.10;;
47866;SDS011;33628;50.806;11.586;2023-10-31T11:09:04;1.95;;;0.30;;
47866;SDS011;33628;50.806;11.586;2023-10-31T11:11:32;4.25;;;0.75;;
47866;SDS011;33628;50.806;11.586;2023-10-31T11:14:01;7.88;;;0.55;;
47866;SDS011;33628;50.806;11.586;2023-10-31T11:16:29;2.00;;;0.60;;
47866;SDS011;33628;50.806;11.586;2023-10-31T11:18:58;0.50;;;0.30;;
47866;SDS011;33628;50.806;11.586;2023-10-31T11:21:27;0.93;;;0.40;;
47866;SDS011;33628;50.806;11.586;2023-10-31T11:23:57;0.88;;;0.30;;
47866;SDS011;33628;50.806;11.586;2023-10-31T11:26:25;1.42;;;0.68;;
47866;SDS011;33628;50.806;11.586;2023-10-31T11:28:52;0.50;;;0.40;;
47866;SDS011;33628;50.806;11.586;2023-10-31T11:31:20;0.95;;;0.60;;
47866;SDS011;33628;50.806;11.586;2023-10-31T11:33:47;0.63;;;0.28;;
47866;SDS011;33628;50.806;11.586;2023-10-31T11:36:13;2.65;;;0.30;;
47866;SDS011;33628;50.806;11.586;2023-10-31T11:38:41;0.50;;;0.20;;
47866;SDS011;33628;50.806;11.586;2023-10-31T11:41:09;0.30;;;0.20;;
47866;SDS011;33628;50.806;11.586;2023-10-31T11:43:51;0.70;;;0.30;;
47866;SDS011;33628;50.806;11.586;2023-10-31T11:46:23;2.58;;;0.20;;
47866;SDS011;33628;50.806;11.586;2023-10-31T11:48:51;0.82;;;0.20;;
47866;SDS011;33628;50.806;11.586;2023-10-31T11:51:20;2.20;;;0.20;;
47866;SDS011;33628;50.806;11.586;2023-10-31T11:53:47;0.25;;;0.20;;
47866;SDS011;33628;50.806;11.586;2023-10-31T11:56:19;6.72;;;2.38;;
47866;SDS011;33628;50.806;11.586;2023-10-31T11:58:54;5.40;;;2.92;;
47866;SDS011;33628;50.806;11.586;2023-10-31T12:01:23;2.97;;;1.45;;
47866;SDS011;33628;50.806;11.586;2023-10-31T12:03:50;6.97;;;4.90;;
47866;SDS011;33628;50.806;11.586;2023-10-31T12:06:17;0.90;;;0.43;;
47866;SDS011;33628;50.806;11.586;2023-10-31T12:08:46;1.63;;;1.40;;
47866;SDS011;33628;50.806;11.586;2023-10-31T12:11:14;2.42;;;0.88;;
47866;SDS011;33628;50.806;11.586;2023-10-31T12:13:53;0.52;;;0.47;;
47866;SDS011;33628;50.806;11.586;2023-10-31T12:16:27;1.05;;;0.40;;
47866;SDS011;33628;50.806;11.586;2023-10-31T12:18:54;0.82;;;0.82;;
47866;SDS011;33628;50.806;11.586;2023-10-31T12:21:33;3.72;;;1.50;;
47866;SDS011;33628;50.806;11.586;2023-10-31T12:24:04;1.08;;;0.38;;
47866;SDS011;33628;50.806;11.586;2023-10-31T12:26:32;1.15;;;0.40;;
47866;SDS011;33628;50.806;11.586;2023-10-31T12:29:09;1.05;;;0.50;;
47866;SDS011;33628;50.806;11.586;2023-10-31T12:34:08;2.55;;;1.17;;
47866;SDS011;33628;50.806;11.586;2023-10-31T12:36:34;1.90;;;1.23;;
47866;SDS011;33628;50.806;11.586;2023-10-31T12:39:02;3.47;;;1.92;;
47866;SDS011;33628;50.806;11.586;2023-10-31T12:41:29;2.28;;;1.55;;
47866;SDS011;33628;50.806;11.586;2023-10-31T12:43:56;2.75;;;1.80;;
47866;SDS011;33628;50.806;11.586;2023-10-31T12:46:26;19.25;;;13.63;;
47866;SDS011;33628;50.806;11.586;2023-10-31T12:48:56;4.78;;;3.38;;
47866;SDS011;33628;50.806;11.586;2023-10-31T12:51:23;3.17;;;0.80;;
47866;SDS011;33628;50.806;11.586;2023-10-31T12:53:50;0.70;;;0.50;;
47866;SDS011;33628;50.806;11.586;2023-10-31T12:56:36;1.60;;;0.60;;
47866;SDS011;33628;50.806;11.586;2023-10-31T12:59:06;0.70;;;0.50;;
47866;SDS011;33628;50.806;11.586;2023-10-31T13:01:33;3.42;;;2.45;;
47866;SDS011;33628;50.806;11.586;2023-10-31T13:04:03;9.13;;;5.38;;
47866;SDS011;33628;50.806;11.586;2023-10-31T13:06:30;27.60;;;18.67;;
47866;SDS011;33628;50.806;11.586;2023-10-31T13:08:57;12.30;;;6.78;;
47866;SDS011;33628;50.806;11.586;2023-10-31T13:11:29;15.98;;;7.85;;
47866;SDS011;33628;50.806;11.586;2023-10-31T13:13:56;17.45;;;8.73;;
47866;SDS011;33628;50.806;11.586;2023-10-31T13:16:22;16.13;;;10.10;;
47866;SDS011;33628;50.806;11.586;2023-10-31T13:18:49;3.70;;;2.65;;
47866;SDS011;33628;50.806;11.586;2023-10-31T13:21:17;4.43;;;2.30;;
47866;SDS011;33628;50.806;11.586;2023-10-31T13:23:44;3.75;;;2.70;;
47866;SDS011;33628;50.806;11.586;2023-10-31T13:26:11;3.45;;;1.63;;
47866;SDS011;33628;50.806;11.586;2023-10-31T13:28:38;2.78;;;2.08;;
47866;SDS011;33628;50.806;11.586;2023-10-31T13:31:05;2.88;;;1.60;;
47866;SDS011;33628;50.806;11.586;2023-10-31T13:33:32;3.05;;;2.05;;
47866;SDS011;33628;50.806;11.586;2023-10-31T13:35:59;2.53;;;1.50;;
47866;SDS011;33628;50.806;11.586;2023-10-31T13:38:27;0.32;;;0.30;;
47866;SDS011;33628;50.806;11.586;2023-10-31T13:40:54;1.77;;;0.90;;
47866;SDS011;33628;50.806;11.586;2023-10-31T13:43:20;1.90;;;1.40;;
47866;SDS011;33628;50.806;11.586;2023-10-31T13:45:47;2.20;;;1.40;;
47866;SDS011;33628;50.806;11.586;2023-10-31T13:48:14;4.47;;;0.73;;
47866;SDS011;33628;50.806;11.586;2023-10-31T13:50:40;1.50;;;0.80;;
47866;SDS011;33628;50.806;11.586;2023-10-31T13:53:07;0.50;;;0.40;;
47866;SDS011;33628;50.806;11.586;2023-10-31T13:55:35;0.73;;;0.30;;
47866;SDS011;33628;50.806;11.586;2023-10-31T13:58:02;0.90;;;0.52;;
47866;SDS011;33628;50.806;11.586;2023-10-31T14:00:29;1.75;;;0.70;;
47866;SDS011;33628;50.806;11.586;2023-10-31T14:02:56;3.80;;;0.60;;
47866;SDS011;33628;50.806;11.586;2023-10-31T14:05:22;1.00;;;0.70;;
47866;SDS011;33628;50.806;11.586;2023-10-31T14:07:49;0.65;;;0.40;;
47866;SDS011;33628;50.806;11.586;2023-10-31T14:10:16;1.58;;;0.65;;
47866;SDS011;33628;50.806;11.586;2023-10-31T14:12:47;3.00;;;0.98;;
47866;SDS011;33628;50.806;11.586;2023-10-31T14:15:13;0.70;;;0.35;;
47866;SDS011;33628;50.806;11.586;2023-10-31T14:17:40;1.60;;;0.93;;
47866;SDS011;33628;50.806;11.586;2023-10-31T14:20:07;1.33;;;0.68;;
47866;SDS011;33628;50.806;11.586;2023-10-31T14:22:34;2.63;;;0.63;;
47866;SDS011;33628;50.806;11.586;2023-10-31T14:25:01;3.95;;;0.70;;
47866;SDS011;33628;50.806;11.586;2023-10-31T14:27:30;0.63;;;0.40;;
47866;SDS011;33628;50.806;11.586;2023-10-31T14:29:58;3.40;;;0.75;;
47866;SDS011;33628;50.806;11.586;2023-10-31T14:32:26;1.13;;;0.77;;
47866;SDS011;33628;50.806;11.586;2023-10-31T14:34:53;1.45;;;0.50;;
47866;SDS011;33628;50.806;11.586;2023-10-31T14:37:19;0.82;;;0.40;;
47866;SDS011;33628;50.806;11.586;2023-10-31T14:39:47;2.17;;;0.63;;